Needmore, Kentucky
Current Conditions -  °F | °C
As of 2:35 PM on Thursday 30 Oct 2014 (Local Time) from KFGX Reporting Station
Overcast Overcast  
Wind Chill: 50°   Ceiling: 3500
Heat Index: 50°   Visibility: 10mi
Dew Point: 35°   Wind: 0mph
Humidity: 57%   Direction: NA
Pressure: 30.12"   Gusts: NA
Location:  38.4934°N, 83.7754°W
Report Text: KFGX 301835Z AUTO 00000KT 10SM OVC035 10/02 A3012 RMK AO2 T01010018
Loading
Personal Weather Stations






























Interactive Weather Map
Tropical Storm Tracking
New forecast layout! Learn more

10-Day Weather Forecast

Advertisements
Track Severe Weather on mobile